createdAt,value
2019-02-28T00:02:31.359Z,37.33
2019-02-28T00:05:05.805Z,41.60
2019-02-28T00:07:36.278Z,38.77
2019-02-28T00:10:09.555Z,44.40
2019-02-28T00:12:41.191Z,37.77
2019-02-28T00:15:13.875Z,34.37
2019-02-28T00:17:45.463Z,42.03
2019-02-28T00:20:17.012Z,40.30
2019-02-28T00:22:49.424Z,52.93
2019-02-28T00:25:21.085Z,39.87
2019-02-28T00:27:53.451Z,38.13
2019-02-28T00:30:26.213Z,30.47
2019-02-28T00:32:59.322Z,37.27
2019-02-28T00:35:31.063Z,35.50
2019-02-28T00:38:02.656Z,37.60
2019-02-28T00:40:34.285Z,35.43
2019-02-28T00:43:05.888Z,37.27
2019-02-28T00:45:38.328Z,28.57
2019-02-28T00:48:10.515Z,34.63
2019-02-28T00:50:42.223Z,23.70
2019-02-28T00:53:14.608Z,31.70
2019-02-28T00:55:47.030Z,30.83
2019-02-28T00:58:18.737Z,27.60
2019-02-28T01:00:50.342Z,29.67
2019-02-28T01:03:26.499Z,33.93
2019-02-28T01:05:55.983Z,38.60
2019-02-28T01:08:27.646Z,39.47
2019-02-28T01:10:59.312Z,34.73
2019-02-28T01:13:30.831Z,32.10
2019-02-28T01:16:02.453Z,39.17
2019-02-28T01:18:34.768Z,33.60
2019-02-28T01:21:07.098Z,30.47
2019-02-28T01:23:38.727Z,29.13
2019-02-28T01:26:11.757Z,30.53
2019-02-28T01:28:43.638Z,36.73
2019-02-28T01:31:15.296Z,26.80
2019-02-28T01:33:47.078Z,27.73
2019-02-28T01:36:18.697Z,36.90
2019-02-28T01:38:50.294Z,34.73
2019-02-28T01:41:21.902Z,36.07
2019-02-28T01:43:53.496Z,36.50
2019-02-28T01:46:25.178Z,36.03
2019-02-28T01:48:57.008Z,40.13
2019-02-28T01:51:28.688Z,42.33
2019-02-28T01:54:00.191Z,38.33
2019-02-28T01:56:34.299Z,31.00
2019-02-28T01:59:05.091Z,34.30
2019-02-28T02:01:36.737Z,37.73
2019-02-28T02:04:08.783Z,37.50
2019-02-28T02:06:40.394Z,40.60
2019-02-28T02:09:11.940Z,46.87
2019-02-28T02:11:43.738Z,40.20
2019-02-28T02:14:15.425Z,33.23
2019-02-28T02:16:47.055Z,37.83
2019-02-28T02:19:18.844Z,38.73
2019-02-28T02:21:51.102Z,32.93
2019-02-28T02:24:24.405Z,29.00
2019-02-28T02:26:56.317Z,38.10
2019-02-28T02:29:27.896Z,34.93
2019-02-28T02:32:01.141Z,36.97
2019-02-28T02:34:32.698Z,38.90
2019-02-28T02:37:04.786Z,38.43
2019-02-28T02:39:36.546Z,46.13
2019-02-28T02:42:11.425Z,38.23
2019-02-28T02:44:41.832Z,36.37
2019-02-28T02:47:13.412Z,35.77
2019-02-28T02:49:45.521Z,31.40
2019-02-28T02:52:17.330Z,29.87
2019-02-28T02:54:52.234Z,34.77
2019-02-28T02:57:22.214Z,32.60
2019-02-28T02:59:53.882Z,31.07
2019-02-28T03:02:28.838Z,27.87
2019-02-28T03:05:01.820Z,33.83
2019-02-28T03:07:33.388Z,32.33
2019-02-28T03:10:08.753Z,35.07
2019-02-28T03:12:40.375Z,34.07
2019-02-28T03:15:15.347Z,28.33
2019-02-28T03:17:48.630Z,22.73
2019-02-28T03:20:20.215Z,27.00
2019-02-28T03:22:51.987Z,19.47
2019-02-28T03:25:27.642Z,23.77
2019-02-28T03:27:57.008Z,30.83
2019-02-28T03:30:32.748Z,24.20
2019-02-28T03:33:02.123Z,28.70
2019-02-28T03:35:41.732Z,23.53
2019-02-28T03:38:11.458Z,22.33
2019-02-28T03:40:41.261Z,28.10
2019-02-28T03:43:13.035Z,24.00
2019-02-28T03:45:44.569Z,22.23
2019-02-28T03:48:16.206Z,23.60
2019-02-28T03:50:47.807Z,22.03
2019-02-28T03:53:20.942Z,26.57
2019-02-28T03:55:52.751Z,24.57
2019-02-28T03:58:24.385Z,23.27
2019-02-28T04:00:55.974Z,27.80
2019-02-28T04:03:33.433Z,24.53
2019-02-28T04:06:03.665Z,26.33
2019-02-28T04:08:34.091Z,21.70
2019-02-28T04:11:05.797Z,22.60
2019-02-28T04:13:37.382Z,23.63
2019-02-28T04:16:10.024Z,18.50
2019-02-28T04:18:46.167Z,23.43
2019-02-28T04:21:15.095Z,21.83
2019-02-28T04:23:46.691Z,21.47
2019-02-28T04:26:19.395Z,20.73
2019-02-28T04:28:54.733Z,27.13
2019-02-28T04:31:24.220Z,27.97
2019-02-28T04:33:55.933Z,23.00
2019-02-28T04:36:27.502Z,19.67
2019-02-28T04:38:59.194Z,22.70
2019-02-28T04:41:32.908Z,19.03
2019-02-28T04:44:04.242Z,25.10
2019-02-28T04:46:35.814Z,21.27
2019-02-28T04:49:07.485Z,20.93
2019-02-28T04:51:40.151Z,23.10
2019-02-28T04:54:12.333Z,20.53
2019-02-28T04:56:45.566Z,22.27
2019-02-28T04:59:17.337Z,21.57
2019-02-28T05:01:49.025Z,22.37
2019-02-28T05:04:20.699Z,19.50
2019-02-28T05:06:55.254Z,19.10
2019-02-28T05:09:26.453Z,19.07
2019-02-28T05:11:58.081Z,20.37
2019-02-28T05:14:29.627Z,21.77
2019-02-28T05:17:01.221Z,21.57
2019-02-28T05:19:35.847Z,17.27
2019-02-28T05:22:06.324Z,20.33
2019-02-28T05:24:39.394Z,20.90
2019-02-28T05:27:12.103Z,24.00
2019-02-28T05:29:44.712Z,20.67
2019-02-28T05:32:16.629Z,25.43
2019-02-28T05:34:51.188Z,16.67
2019-02-28T05:37:21.963Z,16.40
2019-02-28T05:39:53.466Z,19.33
2019-02-28T05:42:26.619Z,21.47
2019-02-28T05:44:58.290Z,24.27
2019-02-28T05:47:32.399Z,19.20
2019-02-28T05:50:03.011Z,20.37
2019-02-28T05:52:34.638Z,24.07
2019-02-28T05:55:09.355Z,22.90
2019-02-28T05:57:43.407Z,23.70
2019-02-28T06:00:17.750Z,19.37
2019-02-28T06:02:49.407Z,18.57
2019-02-28T06:05:20.923Z,22.07
2019-02-28T06:07:52.739Z,20.43
2019-02-28T06:10:24.910Z,18.40
2019-02-28T06:12:56.551Z,19.37
2019-02-28T06:15:28.980Z,21.00
2019-02-28T06:18:00.803Z,20.17
2019-02-28T06:20:32.485Z,24.67
2019-02-28T06:23:06.336Z,21.57
2019-02-28T06:25:37.714Z,19.97
2019-02-28T06:28:09.296Z,17.97
2019-02-28T06:30:42.624Z,25.17
2019-02-28T06:33:14.278Z,24.00
2019-02-28T06:35:45.897Z,22.83
2019-02-28T06:38:19.240Z,24.03
2019-02-28T06:40:51.689Z,25.20
2019-02-28T06:43:23.381Z,22.90
2019-02-28T06:45:55.767Z,24.33
2019-02-28T06:48:28.189Z,20.33
2019-02-28T06:50:59.808Z,24.30
2019-02-28T06:53:33.966Z,25.07
2019-02-28T06:56:06.305Z,20.03
2019-02-28T06:58:37.908Z,27.33
2019-02-28T07:01:09.485Z,25.40
2019-02-28T07:03:42.571Z,28.07
2019-02-28T07:06:14.690Z,27.17
2019-02-28T07:08:46.387Z,21.43
2019-02-28T07:11:19.905Z,23.53
2019-02-28T07:13:51.420Z,23.07
2019-02-28T07:16:23.006Z,25.03
2019-02-28T07:18:54.579Z,25.20
2019-02-28T07:21:26.178Z,29.47
2019-02-28T07:23:57.758Z,25.50
2019-02-28T07:26:29.258Z,19.47
2019-02-28T07:29:00.917Z,24.50
2019-02-28T07:31:32.684Z,22.07
2019-02-28T07:34:04.258Z,22.83
2019-02-28T07:36:35.826Z,32.43
2019-02-28T07:39:07.393Z,35.57
2019-02-28T07:41:41.389Z,20.77
2019-02-28T07:44:12.668Z,24.63
2019-02-28T07:46:44.329Z,27.07
2019-02-28T07:49:15.893Z,27.77
2019-02-28T07:51:47.485Z,26.90
2019-02-28T07:54:20.480Z,30.07
2019-02-28T07:56:52.744Z,31.83
2019-02-28T07:59:24.555Z,23.53
2019-02-28T08:01:56.175Z,29.67
2019-02-28T08:04:27.905Z,26.20
2019-02-28T08:06:59.539Z,32.87
2019-02-28T08:09:31.068Z,25.37
2019-02-28T08:12:03.103Z,32.50
2019-02-28T08:14:34.775Z,29.50
2019-02-28T08:17:09.032Z,36.03
2019-02-28T08:19:40.256Z,33.83
2019-02-28T08:22:11.869Z,30.87
2019-02-28T08:24:43.534Z,44.15
2019-02-28T08:27:15.582Z,36.47
2019-02-28T08:29:47.405Z,43.00
2019-02-28T08:32:18.992Z,34.70
2019-02-28T08:34:50.696Z,46.18
2019-02-28T08:37:22.496Z,40.37
2019-02-28T08:39:54.188Z,44.30
2019-02-28T08:42:25.800Z,38.05
2019-02-28T08:44:58.938Z,41.43
2019-02-28T08:47:30.821Z,40.83
2019-02-28T08:50:02.794Z,41.57
2019-02-28T08:52:37.642Z,44.33
2019-02-28T08:55:14.793Z,43.90
2019-02-28T08:57:54.499Z,44.47
2019-02-28T09:00:21.915Z,43.43
2019-02-28T09:02:53.844Z,45.00
2019-02-28T09:05:28.937Z,51.53
2019-02-28T09:07:58.803Z,46.97
2019-02-28T09:10:31.393Z,56.40
2019-02-28T09:13:07.696Z,46.70
2019-02-28T09:15:36.309Z,49.83
2019-02-28T09:18:07.975Z,53.43
2019-02-28T09:20:41.349Z,50.53
2019-02-28T09:23:13.052Z,52.38
2019-02-28T09:25:44.659Z,55.90
2019-02-28T09:28:16.193Z,46.15
2019-02-28T09:30:55.440Z,42.80
2019-02-28T09:33:27.016Z,51.70
2019-02-28T09:35:58.651Z,47.57
2019-02-28T09:38:30.332Z,48.90
2019-02-28T09:41:04.615Z,47.23
2019-02-28T09:43:35.258Z,53.43
2019-02-28T09:46:09.040Z,48.63
2019-02-28T09:48:40.920Z,54.73
2019-02-28T09:51:12.575Z,49.77
2019-02-28T09:53:44.158Z,43.27
2019-02-28T09:56:15.827Z,47.10
2019-02-28T09:58:49.491Z,49.40
2019-02-28T10:01:24.416Z,50.03
2019-02-28T10:03:56.216Z,49.23
2019-02-28T10:06:27.937Z,50.30
2019-02-28T10:08:59.542Z,48.57
2019-02-28T10:11:31.890Z,48.63
2019-02-28T10:14:04.128Z,53.20
2019-02-28T10:16:35.998Z,44.93
2019-02-28T10:19:10.283Z,44.70
2019-02-28T10:21:41.138Z,43.80
2019-02-28T10:24:12.688Z,44.50
2019-02-28T10:26:44.209Z,47.17
2019-02-28T10:29:15.949Z,50.60
2019-02-28T10:31:49.081Z,60.60
2019-02-28T10:34:23.543Z,52.73
2019-02-28T10:36:53.931Z,44.25
2019-02-28T10:39:25.489Z,50.05
2019-02-28T10:41:57.092Z,42.45
2019-02-28T10:44:30.726Z,50.87
2019-02-28T10:47:02.516Z,53.52
2019-02-28T10:49:34.122Z,54.25
2019-02-28T10:52:05.773Z,47.70
2019-02-28T10:54:37.919Z,45.73
2019-02-28T10:57:09.545Z,46.07
2019-02-28T10:59:41.430Z,47.00
2019-02-28T11:02:13.959Z,45.28
2019-02-28T11:04:46.594Z,41.92
2019-02-28T11:07:18.223Z,45.40
2019-02-28T11:09:49.925Z,47.95
2019-02-28T11:12:23.719Z,50.30
2019-02-28T11:14:54.895Z,55.90
2019-02-28T11:17:30.488Z,44.53
2019-02-28T11:20:01.300Z,50.20
2019-02-28T11:22:36.552Z,50.12
2019-02-28T11:25:12.017Z,45.28
2019-02-28T11:27:43.632Z,63.10
2019-02-28T11:30:22.571Z,50.92
2019-02-28T11:32:54.098Z,57.70
2019-02-28T11:35:25.845Z,58.48
2019-02-28T11:37:57.516Z,54.83
2019-02-28T11:40:29.989Z,52.10
2019-02-28T11:43:03.846Z,58.23
2019-02-28T11:45:41.512Z,56.33
2019-02-28T11:48:20.203Z,52.75
2019-02-28T11:50:50.738Z,54.63
2019-02-28T11:53:22.397Z,60.28
2019-02-28T11:55:54.423Z,55.37
2019-02-28T11:58:26.122Z,56.42
2019-02-28T12:00:57.833Z,50.58
2019-02-28T12:03:31.806Z,47.88
2019-02-28T12:06:02.766Z,50.45
2019-02-28T12:08:34.402Z,54.15
2019-02-28T12:11:05.954Z,51.83
2019-02-28T12:13:37.625Z,52.75
2019-02-28T12:16:09.404Z,53.75
2019-02-28T12:18:41.086Z,48.48
2019-02-28T12:21:13.020Z,48.48
2019-02-28T12:23:44.703Z,55.17
2019-02-28T12:26:17.717Z,54.33
2019-02-28T12:28:49.494Z,50.40
2019-02-28T12:31:21.031Z,55.78
2019-02-28T12:33:53.382Z,50.03
2019-02-28T12:36:27.637Z,58.25
2019-02-28T12:39:02.081Z,52.43
2019-02-28T12:41:34.250Z,58.50
2019-02-28T12:44:06.065Z,58.90
2019-02-28T12:46:37.846Z,45.43
2019-02-28T12:49:09.368Z,63.70
2019-02-28T12:51:41.023Z,55.83
2019-02-28T12:54:12.630Z,55.13
2019-02-28T12:56:47.827Z,51.85
2019-02-28T12:59:18.554Z,48.30
2019-02-28T13:01:50.120Z,56.50
2019-02-28T13:04:21.749Z,51.55
2019-02-28T13:06:55.546Z,52.60
2019-02-28T13:09:27.490Z,51.77
2019-02-28T13:11:59.084Z,53.45
2019-02-28T13:14:30.694Z,58.90
2019-02-28T13:17:02.431Z,52.50
2019-02-28T13:19:34.045Z,52.15
2019-02-28T13:22:05.683Z,51.90
2019-02-28T13:24:37.384Z,50.20
2019-02-28T13:27:09.829Z,50.38
2019-02-28T13:29:42.458Z,58.50
2019-02-28T13:32:14.272Z,59.63
2019-02-28T13:34:45.880Z,61.98
2019-02-28T13:37:17.470Z,69.55
2019-02-28T13:39:49.114Z,55.48
2019-02-28T13:42:20.665Z,64.85
2019-02-28T13:44:52.272Z,60.12
2019-02-28T13:47:25.567Z,58.63
2019-02-28T13:49:57.118Z,68.52
2019-02-28T13:52:28.709Z,58.98
2019-02-28T13:55:00.418Z,60.55
2019-02-28T13:57:32.135Z,63.87
2019-02-28T14:00:07.850Z,62.90
2019-02-28T14:02:38.075Z,73.30
2019-02-28T14:05:09.745Z,53.25
2019-02-28T14:07:41.418Z,57.65
2019-02-28T14:10:18.619Z,71.15
2019-02-28T14:12:53.204Z,64.67
2019-02-28T14:15:34.345Z,66.82
2019-02-28T14:18:07.489Z,65.20
2019-02-28T14:20:40.258Z,64.62
2019-02-28T14:23:11.918Z,62.35
2019-02-28T14:25:43.507Z,68.22
2019-02-28T14:28:15.968Z,67.45
2019-02-28T14:30:47.610Z,61.68
2019-02-28T14:33:20.638Z,64.53
2019-02-28T14:35:52.507Z,68.13
2019-02-28T14:38:26.018Z,69.00
2019-02-28T14:40:59.361Z,70.83
2019-02-28T14:43:31.350Z,67.87
2019-02-28T14:46:03.594Z,73.90
2019-02-28T14:48:36.651Z,71.02
2019-02-28T14:51:08.886Z,65.90
2019-02-28T14:53:40.769Z,64.15
2019-02-28T14:56:14.374Z,78.43
2019-02-28T14:58:57.382Z,68.47
2019-02-28T15:01:27.703Z,75.80
2019-02-28T15:03:59.454Z,74.63
2019-02-28T15:06:31.272Z,72.35
2019-02-28T15:09:46.608Z,78.40
2019-02-28T15:12:55.381Z,75.12
2019-02-28T15:15:27.943Z,80.43
2019-02-28T15:18:32.766Z,80.97
2019-02-28T15:24:45.754Z,87.83
2019-02-28T15:27:17.879Z,84.00
2019-02-28T15:29:49.697Z,87.50
2019-02-28T15:32:23.407Z,84.03
2019-02-28T15:34:54.761Z,79.50
2019-02-28T15:37:26.434Z,78.13
2019-02-28T15:39:57.968Z,95.33
2019-02-28T15:42:29.512Z,98.27
2019-02-28T15:45:04.135Z,88.63
2019-02-28T15:47:34.636Z,92.93
2019-02-28T15:50:13.626Z,81.57
2019-02-28T15:52:46.700Z,81.47
2019-02-28T15:55:20.174Z,93.00
2019-02-28T15:57:51.724Z,82.77
2019-02-28T16:00:28.471Z,81.63
2019-02-28T16:03:00.886Z,92.50
2019-02-28T16:05:32.499Z,84.77
2019-02-28T16:08:08.737Z,83.23
2019-02-28T16:10:37.399Z,81.80
2019-02-28T16:13:09.021Z,78.97
2019-02-28T16:15:43.270Z,81.27
2019-02-28T16:18:14.015Z,85.83
2019-02-28T16:20:45.549Z,71.10
2019-02-28T16:23:17.136Z,80.50
2019-02-28T16:25:50.177Z,74.70
2019-02-28T16:28:21.866Z,84.90
2019-02-28T16:30:53.467Z,87.13
2019-02-28T16:33:25.554Z,80.00
2019-02-28T16:35:57.140Z,86.83
2019-02-28T16:38:30.361Z,73.90
2019-02-28T16:41:02.153Z,83.80
2019-02-28T16:43:34.056Z,74.20
2019-02-28T16:46:05.683Z,81.47
2019-02-28T16:48:37.817Z,88.97
2019-02-28T16:51:09.364Z,81.57
2019-02-28T16:53:41.015Z,91.17
2019-02-28T16:56:12.554Z,66.07
2019-02-28T16:58:44.079Z,80.50
2019-02-28T17:01:17.535Z,77.07
2019-02-28T17:03:49.435Z,76.73
2019-02-28T17:06:20.978Z,55.93
2019-02-28T17:08:54.517Z,76.73
2019-02-28T17:11:28.469Z,75.00
2019-02-28T17:14:01.755Z,62.93
2019-02-28T17:16:38.614Z,68.80
2019-02-28T17:19:11.346Z,82.57
2019-02-28T17:21:42.899Z,66.37
2019-02-28T17:24:14.492Z,83.67
2019-02-28T17:26:50.552Z,63.53
2019-02-28T17:29:25.212Z,75.97
2019-02-28T17:31:57.606Z,64.23
2019-02-28T17:34:29.210Z,66.03
2019-02-28T17:37:00.831Z,76.90
2019-02-28T17:39:33.286Z,68.17
2019-02-28T17:42:08.565Z,62.40
2019-02-28T17:44:46.276Z,74.23
2019-02-28T17:47:33.036Z,61.77
2019-02-28T17:50:42.838Z,80.93
2019-02-28T17:53:38.191Z,66.67
2019-02-28T17:56:32.126Z,60.37
2019-02-28T17:59:31.105Z,72.10
2019-02-28T18:02:46.892Z,74.70
2019-02-28T18:05:51.911Z,62.20
2019-02-28T18:08:50.510Z,70.87
2019-02-28T18:11:45.012Z,71.90
2019-02-28T18:14:40.383Z,81.27
2019-02-28T18:17:53.483Z,60.20
2019-02-28T18:20:38.909Z,57.07
2019-02-28T18:23:39.688Z,64.63
2019-02-28T18:26:39.187Z,70.43
2019-02-28T18:29:15.026Z,62.67
2019-02-28T18:31:46.615Z,55.87
2019-02-28T18:34:20.575Z,70.17
2019-02-28T18:36:51.796Z,67.53
2019-02-28T18:39:25.319Z,55.40
2019-02-28T18:41:56.692Z,62.80
2019-02-28T18:44:28.294Z,53.13
2019-02-28T18:47:02.989Z,62.40
2019-02-28T18:49:33.248Z,46.50
2019-02-28T18:52:04.906Z,50.97
2019-02-28T18:54:36.960Z,49.70
2019-02-28T18:57:08.499Z,56.63
2019-02-28T18:59:40.283Z,43.87
2019-02-28T19:02:12.083Z,61.10
2019-02-28T19:04:43.754Z,49.40
2019-02-28T19:07:15.412Z,62.00
2019-02-28T19:09:47.105Z,71.00
2019-02-28T19:12:18.662Z,59.83
2019-02-28T19:14:50.669Z,63.17
2019-02-28T19:17:22.275Z,53.97
2019-02-28T19:19:53.952Z,67.40
2019-02-28T19:22:25.540Z,68.73
2019-02-28T19:24:57.191Z,64.13
2019-02-28T19:27:28.881Z,60.57
2019-02-28T19:30:00.481Z,64.33
2019-02-28T19:32:33.859Z,70.67
2019-02-28T19:35:05.885Z,63.07
2019-02-28T19:37:37.610Z,60.80
2019-02-28T19:40:12.401Z,67.50
2019-02-28T19:42:44.011Z,59.23
2019-02-28T19:45:25.458Z,62.13
2019-02-28T19:47:57.585Z,70.83
2019-02-28T19:50:29.197Z,53.57
2019-02-28T19:53:00.802Z,61.33
2019-02-28T19:55:32.400Z,64.50
2019-02-28T19:58:04.013Z,57.60
2019-02-28T20:00:35.597Z,63.77
2019-02-28T20:03:07.686Z,72.20
2019-02-28T20:05:39.221Z,63.97
2019-02-28T20:08:10.802Z,62.03
2019-02-28T20:10:42.515Z,65.70
2019-02-28T20:13:14.227Z,60.47
2019-02-28T20:15:45.960Z,65.40
2019-02-28T20:18:18.257Z,65.73
2019-02-28T20:20:50.474Z,63.60
2019-02-28T20:23:22.075Z,48.77
2019-02-28T20:25:53.700Z,52.27
2019-02-28T20:28:25.515Z,58.10
2019-02-28T20:30:57.580Z,51.70
2019-02-28T20:33:29.183Z,47.33
2019-02-28T20:36:01.366Z,46.93
2019-02-28T20:38:33.184Z,54.43
2019-02-28T20:41:04.855Z,53.30
2019-02-28T20:43:36.656Z,55.73
2019-02-28T20:46:08.253Z,50.43
2019-02-28T20:48:39.938Z,58.73
2019-02-28T20:51:11.494Z,59.53
2019-02-28T20:53:43.144Z,49.80
2019-02-28T20:56:14.776Z,50.10
2019-02-28T20:58:46.364Z,53.70
2019-02-28T21:01:18.135Z,51.57
2019-02-28T21:03:49.750Z,43.23
2019-02-28T21:06:21.423Z,45.93
2019-02-28T21:08:53.101Z,38.73
2019-02-28T21:11:24.737Z,42.83
2019-02-28T21:13:56.382Z,47.10
2019-02-28T21:16:28.052Z,46.00
2019-02-28T21:18:59.667Z,43.37
2019-02-28T21:21:31.460Z,43.23
2019-02-28T21:24:04.135Z,44.90
2019-02-28T21:26:35.708Z,47.73
2019-02-28T21:29:07.569Z,45.73
2019-02-28T21:34:26.299Z,43.47
2019-02-28T21:36:58.235Z,50.10
2019-02-28T21:39:30.490Z,52.60
2019-02-28T21:42:02.379Z,51.33
2019-02-28T21:44:46.796Z,44.47
2019-02-28T21:47:18.398Z,48.50
2019-02-28T21:49:50.286Z,47.53
2019-02-28T21:52:22.067Z,50.33
2019-02-28T21:54:53.737Z,53.83
2019-02-28T21:57:26.027Z,52.30
2019-02-28T22:00:00.331Z,41.77
2019-02-28T22:02:34.294Z,64.77
2019-02-28T22:05:38.711Z,61.63
2019-02-28T22:08:11.073Z,48.73
2019-02-28T22:10:42.612Z,61.37
2019-02-28T22:13:14.994Z,61.10
2019-02-28T22:15:46.569Z,58.90
2019-02-28T22:18:18.843Z,63.77
2019-02-28T22:20:50.950Z,56.97
2019-02-28T22:23:22.892Z,60.50
2019-02-28T22:25:54.851Z,65.97
2019-02-28T22:28:26.983Z,58.47
2019-02-28T22:31:00.305Z,61.23
2019-02-28T22:33:42.725Z,56.70
2019-02-28T22:36:16.004Z,53.43
2019-02-28T22:38:47.686Z,63.27
2019-02-28T22:41:19.785Z,60.27
2019-02-28T22:43:51.328Z,53.93
2019-02-28T22:46:22.991Z,58.13
2019-02-28T22:48:54.645Z,60.30
2019-02-28T22:51:26.153Z,56.70
2019-02-28T22:53:57.763Z,56.43
2019-02-28T22:56:29.279Z,54.70
2019-02-28T22:59:00.819Z,53.17
2019-02-28T23:01:32.798Z,52.40
2019-02-28T23:04:04.324Z,56.13
2019-02-28T23:06:36.089Z,59.00
2019-02-28T23:09:08.081Z,44.87
2019-02-28T23:11:40.221Z,56.33
2019-02-28T23:14:11.816Z,65.07
2019-02-28T23:16:43.405Z,48.10
2019-02-28T23:19:15.018Z,66.90
2019-02-28T23:21:46.574Z,59.07
2019-02-28T23:24:18.174Z,69.47
2019-02-28T23:27:13.085Z,57.40
2019-02-28T23:29:58.659Z,51.27
2019-02-28T23:32:42.497Z,56.60
2019-02-28T23:35:22.215Z,48.13
2019-02-28T23:37:53.740Z,52.17
2019-02-28T23:40:25.288Z,55.60
2019-02-28T23:42:56.823Z,50.50
2019-02-28T23:45:28.679Z,48.13
2019-02-28T23:48:00.344Z,52.10
2019-02-28T23:50:31.939Z,54.23
2019-02-28T23:53:03.553Z,52.37
2019-02-28T23:55:35.084Z,50.37
2019-02-28T23:58:06.656Z,44.00
